Time;durP1;ratioP1;P1;durP2;ratioP2;P2;SDS_P1;SDS_P2;PMS_P1;PMS_P2;Temp;Humidity;BMP_temperature;BMP_pressure;BME280_temperature;BME280_humidity;BME280_pressure;Samples;Min_cycle;Max_cycle;Signal;HPM_P1;HPM_P2
2022/07/12 00:00:06;;;;;;;0.70;0.70;;;22.30;99.90;;;;;;1038741;28;20139;-66
2022/07/12 00:00:39;;;;;;;1.15;0.90;;;22.30;99.90;;;;;;1042857;28;20014;-65
2022/07/12 00:01:10;;;;;;;1.63;1.00;;;22.30;99.90;;;;;;1042821;28;20277;-66
2022/07/12 00:01:41;;;;;;;0.60;0.60;;;22.30;99.90;;;;;;1042934;28;20017;-66
2022/07/12 00:02:11;;;;;;;1.07;0.80;;;22.30;99.90;;;;;;1042803;28;20024;-65
2022/07/12 00:02:42;;;;;;;1.10;0.80;;;22.30;99.90;;;;;;1042888;28;20060;-65
2022/07/12 00:03:13;;;;;;;1.97;0.93;;;22.30;99.90;;;;;;1042435;28;20033;-65
2022/07/12 00:03:43;;;;;;;1.13;0.90;;;22.30;99.90;;;;;;1042973;28;20071;-66
2022/07/12 00:04:17;;;;;;;1.17;0.93;;;22.30;99.90;;;;;;1042621;28;20017;-65
2022/07/12 00:04:47;;;;;;;1.25;0.85;;;22.30;99.90;;;;;;1043005;28;20025;-65
2022/07/12 00:05:18;;;;;;;1.07;0.87;;;22.30;99.90;;;;;;1042585;28;20022;-65
2022/07/12 00:05:48;;;;;;;0.70;0.70;;;22.30;99.90;;;;;;1042870;28;20044;-65
2022/07/12 00:06:19;;;;;;;1.07;0.97;;;22.30;99.90;;;;;;1042663;28;20021;-65
2022/07/12 00:06:50;;;;;;;0.83;0.80;;;22.30;99.90;;;;;;1042862;28;20032;-65
2022/07/12 00:07:21;;;;;;;2.10;1.17;;;22.30;99.90;;;;;;1042790;28;20024;-64
2022/07/12 00:07:52;;;;;;;0.83;0.80;;;22.30;99.90;;;;;;1038618;28;20032;-65
2022/07/12 00:08:23;;;;;;;0.70;0.70;;;22.20;99.90;;;;;;1038668;28;20100;-65
2022/07/12 00:08:53;;;;;;;0.73;0.70;;;22.30;99.90;;;;;;1042897;28;20028;-65
2022/07/12 00:09:24;;;;;;;0.70;0.70;;;22.30;99.90;;;;;;1046454;28;20040;-65
2022/07/12 00:09:55;;;;;;;1.27;1.00;;;22.30;99.90;;;;;;1042668;28;20021;-65
2022/07/12 00:10:25;;;;;;;0.60;0.60;;;22.30;99.90;;;;;;1038537;28;20045;-64
2022/07/12 00:10:56;;;;;;;0.70;0.70;;;22.20;99.90;;;;;;1034736;28;20014;-65
2022/07/12 00:11:26;;;;;;;0.70;0.70;;;22.20;99.90;;;;;;1038726;28;20017;-66
2022/07/12 00:11:57;;;;;;;1.27;1.17;;;22.20;99.90;;;;;;1042977;28;20056;-64
2022/07/12 00:12:28;;;;;;;1.02;0.90;;;22.20;99.90;;;;;;1042669;28;20124;-65
2022/07/12 00:12:59;;;;;;;0.73;0.73;;;22.20;99.90;;;;;;1047130;28;20086;-65
2022/07/12 00:13:30;;;;;;;2.20;0.90;;;22.20;99.90;;;;;;1046801;28;20048;-65
2022/07/12 00:14:00;;;;;;;0.93;0.80;;;22.20;99.90;;;;;;1047093;28;20063;-65
2022/07/12 00:14:31;;;;;;;0.70;0.70;;;22.20;99.90;;;;;;1046648;28;20758;-66
2022/07/12 00:15:02;;;;;;;1.67;1.00;;;22.20;99.90;;;;;;1042970;28;20441;-65
2022/07/12 00:15:32;;;;;;;0.80;0.80;;;22.20;99.90;;;;;;1042694;28;20050;-65
2022/07/12 00:16:03;;;;;;;0.73;0.73;;;22.20;99.90;;;;;;1042961;28;20017;-65
2022/07/12 00:16:34;;;;;;;0.80;0.68;;;22.20;99.90;;;;;;1042873;28;20067;-65
2022/07/12 00:17:05;;;;;;;1.43;0.93;;;22.20;99.90;;;;;;1042636;28;20028;-68
2022/07/12 00:17:38;;;;;;;0.93;0.70;;;22.20;99.90;;;;;;1042743;28;20021;-66
2022/07/12 00:18:09;;;;;;;1.17;0.88;;;22.20;99.90;;;;;;1038565;28;20021;-66
2022/07/12 00:18:41;;;;;;;1.17;0.90;;;22.20;99.90;;;;;;1039337;28;20018;-65
2022/07/12 00:19:11;;;;;;;1.23;1.13;;;22.20;99.90;;;;;;1043386;28;20016;-65
2022/07/12 00:19:42;;;;;;;1.03;0.70;;;22.20;99.90;;;;;;1047037;28;20025;-65
2022/07/12 00:20:12;;;;;;;1.10;0.93;;;22.20;99.90;;;;;;1047023;28;20032;-65
2022/07/12 00:20:43;;;;;;;0.70;0.70;;;22.20;99.90;;;;;;1047376;28;20017;-66
2022/07/12 00:21:14;;;;;;;0.70;0.70;;;22.20;99.90;;;;;;1047014;28;20017;-66
2022/07/12 00:21:45;;;;;;;0.80;0.60;;;22.20;99.90;;;;;;1047395;28;20020;-66
2022/07/12 00:22:16;;;;;;;0.90;0.88;;;22.20;99.90;;;;;;1046725;28;20433;-64
2022/07/12 00:22:47;;;;;;;1.23;1.00;;;22.20;99.90;;;;;;1046851;28;20404;-65
2022/07/12 00:23:17;;;;;;;2.53;0.73;;;22.20;99.90;;;;;;1046403;28;20027;-66
2022/07/12 00:23:48;;;;;;;0.70;0.70;;;22.20;99.90;;;;;;1046996;28;20538;-65
2022/07/12 00:24:18;;;;;;;0.77;0.70;;;22.20;99.90;;;;;;1046717;28;20079;-66
2022/07/12 00:24:49;;;;;;;2.53;1.00;;;22.20;99.90;;;;;;1047079;28;20021;-65
2022/07/12 00:25:20;;;;;;;0.50;0.50;;;22.20;99.90;;;;;;1046634;28;20087;-64
2022/07/12 00:25:51;;;;;;;1.00;0.90;;;22.20;99.90;;;;;;1046904;28;20017;-64
2022/07/12 00:26:22;;;;;;;0.77;0.77;;;22.20;99.90;;;;;;1046755;28;20103;-65
2022/07/12 00:26:53;;;;;;;1.42;0.93;;;22.20;99.90;;;;;;1046979;28;20024;-65
2022/07/12 00:27:23;;;;;;;0.80;0.80;;;22.20;99.90;;;;;;1047113;28;20016;-65
2022/07/12 00:27:54;;;;;;;0.83;0.80;;;22.20;99.90;;;;;;1047190;28;20017;-65
2022/07/12 00:28:24;;;;;;;1.67;0.90;;;22.20;99.90;;;;;;1046549;28;20021;-65
2022/07/12 00:28:56;;;;;;;0.60;0.60;;;22.20;99.90;;;;;;1046837;28;20089;-64
2022/07/12 00:29:27;;;;;;;0.98;0.88;;;22.20;99.90;;;;;;1046741;28;20035;-65
2022/07/12 00:29:57;;;;;;;0.70;0.70;;;22.20;99.90;;;;;;1046968;28;20107;-64
2022/07/12 00:30:28;;;;;;;1.10;0.90;;;22.20;99.90;;;;;;1046892;28;20026;-65
2022/07/12 00:30:59;;;;;;;1.00;0.90;;;22.20;99.90;;;;;;1047126;28;20102;-64
2022/07/12 00:31:30;;;;;;;0.85;0.85;;;22.20;99.90;;;;;;1046700;28;20016;-65
2022/07/12 00:32:01;;;;;;;1.17;0.87;;;22.20;99.90;;;;;;1046932;28;20032;-65
2022/07/12 00:32:31;;;;;;;0.70;0.70;;;22.20;99.90;;;;;;1046514;28;20028;-65
2022/07/12 00:33:02;;;;;;;1.00;0.90;;;22.10;99.90;;;;;;1047136;28;20021;-65
2022/07/12 00:33:33;;;;;;;1.30;0.90;;;22.10;99.90;;;;;;1046590;28;20373;-66
2022/07/12 00:34:03;;;;;;;0.70;0.70;;;22.10;99.90;;;;;;1047014;28;20013;-65
2022/07/12 00:34:34;;;;;;;0.80;0.80;;;22.10;99.90;;;;;;1046563;28;20554;-65
2022/07/12 00:35:05;;;;;;;1.77;1.03;;;22.10;99.90;;;;;;1047020;28;20024;-65
2022/07/12 00:35:36;;;;;;;1.42;0.90;;;22.10;99.90;;;;;;1046802;28;20024;-65
2022/07/12 00:36:07;;;;;;;1.10;0.83;;;22.10;99.90;;;;;;1046991;28;20043;-64
2022/07/12 00:36:38;;;;;;;0.70;0.70;;;22.10;99.90;;;;;;1046930;28;20017;-64
2022/07/12 00:37:08;;;;;;;1.20;0.80;;;22.10;99.90;;;;;;1047294;28;20025;-64
2022/07/12 00:37:39;;;;;;;0.80;0.80;;;22.10;99.90;;;;;;1046705;28;20028;-64
2022/07/12 00:38:09;;;;;;;1.37;0.80;;;22.10;99.90;;;;;;1046765;28;20040;-65
2022/07/12 00:38:40;;;;;;;1.27;0.97;;;22.10;99.90;;;;;;1046948;28;20021;-65
2022/07/12 00:39:11;;;;;;;0.93;0.80;;;22.10;99.90;;;;;;1046679;28;20021;-65
2022/07/12 00:39:41;;;;;;;1.57;0.70;;;22.10;99.90;;;;;;1042661;28;20652;-65
2022/07/12 00:40:12;;;;;;;0.63;0.63;;;22.10;99.90;;;;;;1038491;28;20673;-65
2022/07/12 00:40:42;;;;;;;0.80;0.70;;;22.10;99.90;;;;;;1038720;28;20079;-65
2022/07/12 00:41:14;;;;;;;0.60;0.60;;;22.10;99.90;;;;;;1042552;28;20082;-65
2022/07/12 00:41:48;;;;;;;0.95;0.80;;;22.10;99.90;;;;;;1042998;28;20083;-65
2022/07/12 00:42:19;;;;;;;0.90;0.70;;;22.10;99.90;;;;;;1042503;28;20021;-64
2022/07/12 00:42:50;;;;;;;1.10;0.70;;;22.10;99.90;;;;;;1042644;28;20171;-65
2022/07/12 00:43:21;;;;;;;0.90;0.70;;;22.10;99.90;;;;;;1042753;28;20070;-65
2022/07/12 00:43:52;;;;;;;0.68;0.68;;;22.10;99.90;;;;;;1038695;28;20072;-65
2022/07/12 00:44:22;;;;;;;1.23;0.90;;;22.10;99.90;;;;;;1042586;28;20028;-66
2022/07/12 00:44:53;;;;;;;1.00;0.80;;;22.10;99.90;;;;;;1038544;28;20112;-65
2022/07/12 00:45:24;;;;;;;0.67;0.60;;;22.10;99.90;;;;;;1038537;28;20132;-65
2022/07/12 00:45:54;;;;;;;0.57;0.57;;;22.00;99.90;;;;;;1042812;28;20512;-65
2022/07/12 00:46:25;;;;;;;1.10;1.00;;;22.00;99.90;;;;;;1042542;28;20119;-65
2022/07/12 00:46:57;;;;;;;0.87;0.80;;;22.00;99.90;;;;;;1042767;28;20031;-65
2022/07/12 00:47:48;;;;;;;0.80;0.80;;;22.00;99.90;;;;;;1042951;28;20017;-64
2022/07/12 00:48:19;;;;;;;1.08;0.90;;;22.00;99.90;;;;;;1042909;28;20024;-64
2022/07/12 00:48:51;;;;;;;2.30;0.90;;;22.00;99.90;;;;;;1043021;28;20017;-64
2022/07/12 00:49:23;;;;;;;0.77;0.73;;;22.00;99.90;;;;;;1046565;28;20293;-64
2022/07/12 00:49:55;;;;;;;1.23;0.95;;;22.00;99.90;;;;;;1046788;28;20047;-64
2022/07/12 00:50:25;;;;;;;0.68;0.68;;;22.00;99.90;;;;;;1042463;28;20033;-65
2022/07/12 00:50:56;;;;;;;1.43;1.00;;;22.00;99.90;;;;;;1042650;28;20029;-63
2022/07/12 00:51:27;;;;;;;1.30;1.00;;;22.00;99.90;;;;;;1042527;28;20108;-64
2022/07/12 00:51:58;;;;;;;0.60;0.60;;;22.00;99.90;;;;;;1042657;28;20032;-64
2022/07/12 00:52:29;;;;;;;1.40;0.82;;;22.00;99.90;;;;;;1042569;28;20107;-65
2022/07/12 00:52:59;;;;;;;0.90;0.90;;;22.00;99.90;;;;;;1042761;28;20025;-65
2022/07/12 00:53:30;;;;;;;1.13;0.80;;;22.00;99.90;;;;;;1038193;28;20025;-65
2022/07/12 00:54:02;;;;;;;1.00;0.90;;;22.00;99.90;;;;;;1034715;28;20022;-65
2022/07/12 00:54:32;;;;;;;0.60;0.60;;;22.00;99.90;;;;;;1038299;28;20028;-65
2022/07/12 00:55:05;;;;;;;0.97;0.87;;;22.00;99.90;;;;;;1034843;28;20029;-65
2022/07/12 00:55:36;;;;;;;1.02;0.93;;;22.00;99.90;;;;;;1038688;28;20025;-65
2022/07/12 00:56:06;;;;;;;0.67;0.67;;;22.00;99.90;;;;;;1042684;28;20029;-65
2022/07/12 00:56:37;;;;;;;0.77;0.60;;;22.00;99.90;;;;;;1042494;28;20088;-65
2022/07/12 00:57:08;;;;;;;0.70;0.70;;;22.00;99.90;;;;;;1038825;28;20889;-65
2022/07/12 00:57:39;;;;;;;0.93;0.67;;;22.00;99.90;;;;;;1042541;28;20029;-65
2022/07/12 00:58:10;;;;;;;0.75;0.70;;;22.00;99.90;;;;;;1042726;28;20029;-65
2022/07/12 00:58:43;;;;;;;0.60;0.60;;;22.00;99.90;;;;;;1042648;28;20021;-65
2022/07/12 00:59:13;;;;;;;1.40;0.95;;;22.00;99.90;;;;;;1043105;28;20555;-65
2022/07/12 00:59:44;;;;;;;0.80;0.67;;;22.00;99.90;;;;;;1042907;28;20538;-65
2022/07/12 01:00:19;;;;;;;0.80;0.80;;;22.00;99.90;;;;;;1042562;28;20021;-65
2022/07/12 01:00:50;;;;;;;1.08;0.98;;;22.00;99.90;;;;;;1042682;28;20017;-65
2022/07/12 01:01:22;;;;;;;0.70;0.70;;;22.00;99.90;;;;;;1038678;28;20021;-65
2022/07/12 01:01:53;;;;;;;0.75;0.75;;;22.00;99.90;;;;;;1034704;28;20091;-65
2022/07/12 01:02:25;;;;;;;1.10;0.90;;;22.00;99.90;;;;;;1038741;28;20143;-65
2022/07/12 01:02:57;;;;;;;1.23;0.95;;;22.00;99.90;;;;;;1038731;28;20499;-66
2022/07/12 01:03:28;;;;;;;1.00;0.80;;;22.00;99.90;;;;;;1042703;28;20110;-65
2022/07/12 01:04:01;;;;;;;0.90;0.70;;;22.00;99.90;;;;;;1042440;28;20400;-65
2022/07/12 01:04:31;;;;;;;1.10;1.00;;;22.00;99.90;;;;;;1042649;28;20048;-65
2022/07/12 01:05:05;;;;;;;0.67;0.67;;;22.00;99.90;;;;;;1042569;28;20029;-65
2022/07/12 01:05:35;;;;;;;0.63;0.63;;;22.00;99.90;;;;;;1039088;28;20040;-65
2022/07/12 01:06:07;;;;;;;1.00;0.80;;;22.00;99.90;;;;;;1042601;28;20043;-64
2022/07/12 01:06:38;;;;;;;0.60;0.60;;;22.00;99.90;;;;;;1038575;28;20026;-65
2022/07/12 01:07:09;;;;;;;1.00;0.90;;;22.00;99.90;;;;;;1038591;28;20190;-66
2022/07/12 01:07:40;;;;;;;1.25;1.00;;;22.00;99.90;;;;;;1038609;28;20127;-65
2022/07/12 01:08:12;;;;;;;1.10;0.90;;;22.00;99.90;;;;;;1035900;28;20038;-65
2022/07/12 01:08:42;;;;;;;1.02;0.82;;;22.00;99.90;;;;;;1038530;28;20029;-65
2022/07/12 01:09:13;;;;;;;1.00;0.90;;;22.00;99.90;;;;;;1038698;28;20151;-65
2022/07/12 01:09:45;;;;;;;0.87;0.70;;;22.00;99.90;;;;;;1042913;28;20107;-65
2022/07/12 01:10:16;;;;;;;0.70;0.70;;;21.90;99.90;;;;;;1046542;28;20604;-65
2022/07/12 01:10:48;;;;;;;1.00;1.00;;;21.90;99.90;;;;;;1046912;28;20028;-65
2022/07/12 01:11:20;;;;;;;0.70;0.70;;;22.00;99.90;;;;;;1046620;28;20067;-65
2022/07/12 01:11:51;;;;;;;0.80;0.80;;;21.90;99.90;;;;;;1043086;28;20040;-65
2022/07/12 01:12:23;;;;;;;0.70;0.70;;;21.90;99.90;;;;;;1046744;28;20044;-65
2022/07/12 01:12:58;;;;;;;2.13;0.98;;;21.90;99.90;;;;;;1042523;28;20503;-65
2022/07/12 01:13:29;;;;;;;1.42;0.90;;;21.90;99.90;;;;;;1043365;28;20013;-65
2022/07/12 01:14:00;;;;;;;1.58;0.95;;;21.90;99.90;;;;;;1046712;28;20050;-65
2022/07/12 01:14:32;;;;;;;0.68;0.68;;;21.90;99.90;;;;;;1046436;28;20025;-65
2022/07/12 01:15:05;;;;;;;1.10;0.80;;;21.90;99.90;;;;;;1042674;28;20078;-65
2022/07/12 01:15:37;;;;;;;0.75;0.70;;;21.90;99.90;;;;;;1042404;28;20465;-65
2022/07/12 01:16:08;;;;;;;0.80;0.80;;;21.90;99.90;;;;;;1042649;28;20415;-65
2022/07/12 01:16:39;;;;;;;1.15;0.95;;;21.90;99.90;;;;;;1043157;28;20515;-65
2022/07/12 01:17:11;;;;;;;2.47;1.00;;;21.90;99.90;;;;;;1046752;28;20095;-65
2022/07/12 01:17:44;;;;;;;1.10;0.98;;;21.90;99.90;;;;;;1042342;28;20021;-65
2022/07/12 01:18:16;;;;;;;0.93;0.80;;;21.90;99.90;;;;;;1039103;28;20033;-65
2022/07/12 01:18:47;;;;;;;0.70;0.70;;;21.90;99.90;;;;;;1038280;28;20017;-65
2022/07/12 01:19:20;;;;;;;1.03;0.93;;;21.90;99.90;;;;;;1038961;28;20025;-65
2022/07/12 01:19:54;;;;;;;0.82;0.70;;;21.90;99.90;;;;;;1042245;28;20025;-65
2022/07/12 01:20:25;;;;;;;0.88;0.77;;;21.90;99.90;;;;;;1039560;28;20018;-65
2022/07/12 01:20:56;;;;;;;0.77;0.77;;;21.90;99.90;;;;;;1042414;28;20165;-65
2022/07/12 01:21:30;;;;;;;1.00;0.90;;;21.90;99.90;;;;;;1042188;28;20016;-65
2022/07/12 01:22:02;;;;;;;1.42;1.00;;;21.90;99.90;;;;;;1038829;28;20018;-65
2022/07/12 01:22:35;;;;;;;1.10;0.85;;;21.90;99.90;;;;;;1042584;28;20021;-65
2022/07/12 01:23:06;;;;;;;0.95;0.75;;;21.90;99.90;;;;;;1042418;28;20029;-65
2022/07/12 01:23:37;;;;;;;0.80;0.80;;;21.90;99.90;;;;;;1042740;28;20021;-65
2022/07/12 01:24:09;;;;;;;1.05;0.68;;;21.80;99.90;;;;;;1042788;28;20018;-65
2022/07/12 01:24:40;;;;;;;1.13;1.00;;;21.80;99.90;;;;;;1042957;28;20021;-65
2022/07/12 01:25:11;;;;;;;0.98;0.90;;;21.80;99.90;;;;;;1042717;28;20021;-65
2022/07/12 01:25:42;;;;;;;2.30;0.80;;;21.80;99.90;;;;;;1043091;28;20108;-66
2022/07/12 01:26:12;;;;;;;1.00;0.80;;;21.80;99.90;;;;;;1042271;28;20029;-65
2022/07/12 01:26:43;;;;;;;0.60;0.60;;;21.80;99.90;;;;;;1038436;28;20152;-65
2022/07/12 01:27:14;;;;;;;2.20;0.83;;;21.80;99.90;;;;;;1038293;28;20026;-65
2022/07/12 01:27:44;;;;;;;1.70;0.70;;;21.80;99.90;;;;;;1038559;28;20080;-65
2022/07/12 01:28:15;;;;;;;0.90;0.80;;;21.80;99.90;;;;;;1042433;28;20098;-65
2022/07/12 01:28:46;;;;;;;1.00;0.93;;;21.80;99.90;;;;;;1042784;28;20103;-65
2022/07/12 01:29:17;;;;;;;1.55;0.98;;;21.80;99.90;;;;;;1042331;28;20021;-65
2022/07/12 01:29:48;;;;;;;2.03;0.90;;;21.80;99.90;;;;;;1042498;28;20032;-65
2022/07/12 01:30:19;;;;;;;0.80;0.80;;;21.80;99.90;;;;;;1042487;28;20028;-66
2022/07/12 01:30:50;;;;;;;0.95;0.88;;;21.80;99.90;;;;;;1042449;28;20123;-65
2022/07/12 01:31:21;;;;;;;0.63;0.60;;;21.80;99.90;;;;;;1042770;28;20091;-65
2022/07/12 01:31:51;;;;;;;0.63;0.60;;;21.80;99.90;;;;;;1046735;28;20035;-65
2022/07/12 01:32:25;;;;;;;0.93;0.87;;;21.80;99.90;;;;;;1046592;28;20028;-65
2022/07/12 01:32:57;;;;;;;1.08;0.90;;;21.80;99.90;;;;;;1042548;28;20147;-65
2022/07/12 01:33:27;;;;;;;0.80;0.77;;;21.80;99.90;;;;;;1042516;28;20448;-65
2022/07/12 01:33:58;;;;;;;0.93;0.90;;;21.80;99.90;;;;;;1042762;28;20503;-65
2022/07/12 01:34:29;;;;;;;1.67;0.95;;;21.80;99.90;;;;;;1038531;28;20025;-65
2022/07/12 01:35:03;;;;;;;1.50;1.00;;;21.80;99.90;;;;;;1042548;28;20116;-65
2022/07/12 01:35:35;;;;;;;0.95;0.90;;;21.80;99.90;;;;;;1042415;28;20055;-65
2022/07/12 01:36:06;;;;;;;1.70;1.00;;;21.80;99.90;;;;;;1043595;28;20050;-65
2022/07/12 01:36:39;;;;;;;1.10;1.00;;;21.80;99.90;;;;;;1046450;28;20024;-65
2022/07/12 01:37:11;;;;;;;0.88;0.88;;;21.80;99.90;;;;;;1042655;28;20020;-65
2022/07/12 01:37:43;;;;;;;0.75;0.70;;;21.80;99.90;;;;;;1042493;28;20016;-65
2022/07/12 01:38:14;;;;;;;0.90;0.70;;;21.80;99.90;;;;;;1042774;28;20029;-65
2022/07/12 01:38:44;;;;;;;0.73;0.73;;;21.80;99.90;;;;;;1038782;28;20034;-66
2022/07/12 01:39:15;;;;;;;0.60;0.60;;;21.80;99.90;;;;;;1042749;28;20084;-65
2022/07/12 01:39:48;;;;;;;0.70;0.70;;;21.80;99.90;;;;;;1042417;28;20028;-65
2022/07/12 01:40:20;;;;;;;0.95;0.80;;;21.80;99.90;;;;;;1043172;28;20033;-65
2022/07/12 01:40:50;;;;;;;0.95;0.90;;;21.80;99.90;;;;;;1042286;28;20029;-65
2022/07/12 01:41:23;;;;;;;0.83;0.73;;;21.80;99.90;;;;;;1042113;28;20092;-65
2022/07/12 01:41:54;;;;;;;0.90;0.90;;;21.80;99.90;;;;;;1038544;28;20079;-65
2022/07/12 01:42:26;;;;;;;0.90;0.90;;;21.80;99.90;;;;;;1042742;28;20027;-65
2022/07/12 01:42:57;;;;;;;1.30;0.80;;;21.80;99.90;;;;;;1042370;28;20514;-65
2022/07/12 01:43:28;;;;;;;0.82;0.82;;;21.80;99.90;;;;;;1042599;28;20028;-65
2022/07/12 01:43:59;;;;;;;0.73;0.73;;;21.80;99.90;;;;;;1038237;28;20115;-65
2022/07/12 01:44:30;;;;;;;1.23;0.73;;;21.80;99.90;;;;;;1038506;28;20059;-65
2022/07/12 01:45:01;;;;;;;0.80;0.80;;;21.80;99.90;;;;;;1038524;28;20084;-65
2022/07/12 01:45:31;;;;;;;0.83;0.83;;;21.80;99.90;;;;;;1042754;28;20023;-65
2022/07/12 01:46:02;;;;;;;0.83;0.83;;;21.80;99.90;;;;;;1042318;28;20066;-65
2022/07/12 01:46:33;;;;;;;1.10;1.00;;;21.80;99.90;;;;;;1042553;28;20021;-65
2022/07/12 01:47:03;;;;;;;0.70;0.70;;;21.80;99.90;;;;;;1038119;28;20025;-65
2022/07/12 01:47:34;;;;;;;0.60;0.60;;;21.80;99.90;;;;;;1038589;28;20035;-65
2022/07/12 01:48:05;;;;;;;1.10;1.00;;;21.80;99.90;;;;;;1042256;28;20021;-65
2022/07/12 01:48:36;;;;;;;1.23;0.97;;;21.80;99.90;;;;;;1038471;28;20264;-65
2022/07/12 01:49:06;;;;;;;0.70;0.70;;;21.80;99.90;;;;;;1042610;28;20025;-66
2022/07/12 01:49:37;;;;;;;1.10;0.80;;;21.80;99.90;;;;;;1042825;28;20798;-65
2022/07/12 01:50:10;;;;;;;0.90;0.90;;;21.80;99.90;;;;;;1042420;28;20823;-65
2022/07/12 01:50:42;;;;;;;0.82;0.82;;;21.80;99.90;;;;;;1042700;28;20024;-66
2022/07/12 01:51:13;;;;;;;1.27;1.10;;;21.80;99.90;;;;;;1042309;28;20747;-66
2022/07/12 01:51:43;;;;;;;0.97;0.90;;;21.70;99.90;;;;;;1042611;28;20047;-65
2022/07/12 01:52:14;;;;;;;0.90;0.90;;;21.70;99.90;;;;;;1042621;28;20026;-65
2022/07/12 01:52:45;;;;;;;0.90;0.90;;;21.70;99.90;;;;;;1038569;28;20060;-65
2022/07/12 01:53:16;;;;;;;0.80;0.73;;;21.70;99.90;;;;;;1042539;28;20100;-65
2022/07/12 01:53:47;;;;;;;0.70;0.70;;;21.70;99.90;;;;;;1042503;28;20024;-65
2022/07/12 01:54:17;;;;;;;1.47;1.37;;;21.70;99.90;;;;;;1042621;28;20059;-65
2022/07/12 01:54:48;;;;;;;1.03;0.90;;;21.70;99.90;;;;;;1042924;28;20021;-65
2022/07/12 01:55:18;;;;;;;1.10;0.63;;;21.70;99.90;;;;;;1043006;28;20063;-65
2022/07/12 01:55:49;;;;;;;1.00;0.90;;;21.70;99.90;;;;;;1042689;28;20067;-65
2022/07/12 01:56:20;;;;;;;1.33;1.07;;;21.70;99.90;;;;;;1046859;28;20025;-65
2022/07/12 01:56:52;;;;;;;1.27;1.00;;;21.70;99.90;;;;;;1046395;28;20498;-65
2022/07/12 01:57:23;;;;;;;0.70;0.70;;;21.70;99.90;;;;;;1046884;28;20060;-65
2022/07/12 01:57:54;;;;;;;2.00;0.70;;;21.70;99.90;;;;;;1046156;28;20020;-65
2022/07/12 01:58:25;;;;;;;1.40;0.88;;;21.70;99.90;;;;;;1046572;28;20466;-65
2022/07/12 01:58:56;;;;;;;0.87;0.87;;;21.70;99.90;;;;;;1046480;28;20500;-65
2022/07/12 01:59:29;;;;;;;1.13;0.90;;;21.70;99.90;;;;;;1046736;28;20031;-65
2022/07/12 02:00:02;;;;;;;1.13;1.02;;;21.70;99.90;;;;;;1046522;28;20021;-65
2022/07/12 02:00:33;;;;;;;0.70;0.70;;;21.70;99.90;;;;;;1046714;28;20051;-65
2022/07/12 02:01:04;;;;;;;1.20;0.90;;;21.70;99.90;;;;;;1046529;28;20043;-65
2022/07/12 02:01:37;;;;;;;0.80;0.80;;;21.70;99.90;;;;;;1046799;28;20025;-66
2022/07/12 02:02:08;;;;;;;1.10;0.70;;;21.70;99.90;;;;;;1045797;28;20058;-65
2022/07/12 02:02:39;;;;;;;0.90;0.90;;;21.70;99.90;;;;;;1043031;28;20063;-65
2022/07/12 02:03:10;;;;;;;0.80;0.80;;;21.60;99.90;;;;;;1046184;28;20026;-64
2022/07/12 02:03:40;;;;;;;0.80;0.80;;;21.60;99.90;;;;;;1046701;28;20024;-64
2022/07/12 02:04:11;;;;;;;1.03;0.70;;;21.60;99.90;;;;;;1046481;28;20116;-65
2022/07/12 02:04:42;;;;;;;0.80;0.80;;;21.60;99.90;;;;;;1046863;28;20017;-64
2022/07/12 02:05:13;;;;;;;0.83;0.83;;;21.60;99.90;;;;;;1046265;28;20100;-65
2022/07/12 02:05:45;;;;;;;1.10;0.80;;;21.60;99.90;;;;;;1042970;28;20078;-64
2022/07/12 02:06:16;;;;;;;0.60;0.60;;;21.60;99.90;;;;;;1042645;28;20009;-65
2022/07/12 02:06:48;;;;;;;0.90;0.90;;;21.60;99.90;;;;;;1042926;28;20075;-65
2022/07/12 02:07:19;;;;;;;1.00;0.90;;;21.60;99.90;;;;;;1042929;28;20459;-65
2022/07/12 02:07:50;;;;;;;0.60;0.60;;;21.60;99.90;;;;;;1046500;28;20476;-65
2022/07/12 02:08:21;;;;;;;0.70;0.70;;;21.60;99.90;;;;;;1046107;28;20013;-64
2022/07/12 02:08:51;;;;;;;1.60;0.90;;;21.60;99.90;;;;;;1046703;28;20016;-64
2022/07/12 02:09:23;;;;;;;1.63;0.90;;;21.60;99.90;;;;;;1046438;28;20641;-64
2022/07/12 02:09:53;;;;;;;1.05;0.95;;;21.60;99.90;;;;;;1047138;28;20127;-67
2022/07/12 02:10:24;;;;;;;0.90;0.90;;;21.60;99.90;;;;;;1043803;28;20209;-66
2022/07/12 02:10:54;;;;;;;0.70;0.70;;;21.60;99.90;;;;;;1042810;28;20109;-64
2022/07/12 02:11:25;;;;;;;0.83;0.83;;;21.60;99.90;;;;;;1042415;28;20013;-64
2022/07/12 02:11:56;;;;;;;0.70;0.70;;;21.60;99.90;;;;;;1042588;28;20468;-63
2022/07/12 02:12:26;;;;;;;0.97;0.87;;;21.60;99.90;;;;;;1042310;28;20024;-64
2022/07/12 02:12:59;;;;;;;0.90;0.90;;;21.60;99.90;;;;;;1042584;28;20468;-64
2022/07/12 02:13:29;;;;;;;1.00;0.88;;;21.60;99.90;;;;;;1041801;28;20137;-64
2022/07/12 02:14:00;;;;;;;1.00;0.90;;;21.60;99.90;;;;;;1038633;28;20024;-64
2022/07/12 02:14:31;;;;;;;1.70;0.82;;;21.60;99.90;;;;;;1038191;28;20017;-66
2022/07/12 02:15:03;;;;;;;1.00;0.90;;;21.60;99.90;;;;;;1038929;28;20026;-64
2022/07/12 02:15:34;;;;;;;1.30;0.85;;;21.60;99.90;;;;;;1042429;28;20017;-63
2022/07/12 02:16:05;;;;;;;1.20;1.10;;;21.60;99.90;;;;;;1042814;28;20021;-66
2022/07/12 02:16:35;;;;;;;0.88;0.70;;;21.60;99.90;;;;;;1046434;28;20792;-64
2022/07/12 02:17:06;;;;;;;0.97;0.90;;;21.60;99.90;;;;;;1046761;28;20812;-66
2022/07/12 02:17:37;;;;;;;1.10;0.87;;;21.60;99.90;;;;;;1042395;28;20021;-63
2022/07/12 02:18:07;;;;;;;1.43;1.00;;;21.60;99.90;;;;;;1046652;28;20025;-64
2022/07/12 02:18:38;;;;;;;0.80;0.80;;;21.60;99.90;;;;;;1046521;28;20071;-64
2022/07/12 02:19:10;;;;;;;0.90;0.80;;;21.60;99.90;;;;;;1046738;28;20021;-64
2022/07/12 02:19:41;;;;;;;0.98;0.80;;;21.60;99.90;;;;;;1046574;28;20472;-64
2022/07/12 02:20:12;;;;;;;0.70;0.70;;;21.60;99.90;;;;;;1047007;28;20495;-64
2022/07/12 02:20:43;;;;;;;1.67;0.85;;;21.60;99.90;;;;;;1046385;28;20024;-64
2022/07/12 02:21:14;;;;;;;0.83;0.83;;;21.60;99.90;;;;;;1046628;28;20029;-64
2022/07/12 02:21:45;;;;;;;0.90;0.90;;;21.60;99.90;;;;;;1046415;28;20031;-64
2022/07/12 02:22:15;;;;;;;1.13;0.90;;;21.60;99.90;;;;;;1046707;28;20020;-64
2022/07/12 02:22:46;;;;;;;1.00;0.90;;;21.60;99.90;;;;;;1046470;28;20694;-64
2022/07/12 02:23:16;;;;;;;1.13;0.80;;;21.60;99.90;;;;;;1046918;28;20013;-64
2022/07/12 02:23:47;;;;;;;1.43;0.90;;;21.60;99.90;;;;;;1046859;28;20525;-66
2022/07/12 02:24:18;;;;;;;0.80;0.80;;;21.60;99.90;;;;;;1046534;28;20024;-63
2022/07/12 02:24:49;;;;;;;1.90;0.97;;;21.60;99.90;;;;;;1046544;28;20020;-64
2022/07/12 02:25:20;;;;;;;1.02;0.88;;;21.60;99.90;;;;;;1046567;28;20259;-64
2022/07/12 02:25:51;;;;;;;1.20;1.00;;;21.60;99.90;;;;;;1046528;28;20023;-64
2022/07/12 02:26:21;;;;;;;1.13;1.03;;;21.60;99.90;;;;;;1046992;28;20047;-64
2022/07/12 02:26:52;;;;;;;0.70;0.70;;;21.60;99.90;;;;;;1047071;28;20036;-64
2022/07/12 02:27:23;;;;;;;1.07;0.97;;;21.60;99.90;;;;;;1046724;28;20040;-63
2022/07/12 02:27:54;;;;;;;1.90;0.70;;;21.60;99.90;;;;;;1046620;28;20079;-64
2022/07/12 02:28:25;;;;;;;1.73;0.90;;;21.60;99.90;;;;;;1046541;28;20024;-64
2022/07/12 02:28:56;;;;;;;1.07;0.90;;;21.50;99.90;;;;;;1046567;28;20460;-64
2022/07/12 02:29:26;;;;;;;0.85;0.80;;;21.60;99.90;;;;;;1046444;28;20070;-64
2022/07/12 02:29:57;;;;;;;1.53;1.00;;;21.50;99.90;;;;;;1046639;28;20055;-64
2022/07/12 02:30:27;;;;;;;0.97;0.90;;;21.50;99.90;;;;;;1046651;28;20016;-64
2022/07/12 02:30:59;;;;;;;2.07;1.20;;;21.50;99.90;;;;;;1046771;28;20385;-64
2022/07/12 02:31:29;;;;;;;1.80;0.90;;;21.50;99.90;;;;;;1046544;28;20009;-64
2022/07/12 02:32:01;;;;;;;1.00;0.73;;;21.50;99.90;;;;;;1047072;28;20187;-64
2022/07/12 02:32:31;;;;;;;1.08;0.98;;;21.50;99.90;;;;;;1046258;28;20102;-64
2022/07/12 02:33:02;;;;;;;0.93;0.93;;;21.50;99.90;;;;;;1047518;28;20047;-63
2022/07/12 02:33:32;;;;;;;1.10;1.00;;;21.50;99.90;;;;;;1043034;28;20036;-64
2022/07/12 02:34:04;;;;;;;0.83;0.80;;;21.50;99.90;;;;;;1043623;28;20025;-65
2022/07/12 02:34:35;;;;;;;0.80;0.80;;;21.50;99.90;;;;;;1047068;28;20025;-64
2022/07/12 02:35:06;;;;;;;2.25;1.13;;;21.50;99.90;;;;;;1047541;28;20032;-64
2022/07/12 02:35:36;;;;;;;1.00;0.80;;;21.50;99.90;;;;;;1047450;28;20021;-64
2022/07/12 02:36:07;;;;;;;1.17;0.90;;;21.50;99.90;;;;;;1047953;28;20246;-64
2022/07/12 02:36:37;;;;;;;0.90;0.90;;;21.50;99.90;;;;;;1047441;28;20005;-64
2022/07/12 02:37:08;;;;;;;1.40;1.10;;;21.50;99.90;;;;;;1047844;28;20058;-65
2022/07/12 02:37:39;;;;;;;0.70;0.70;;;21.50;99.90;;;;;;1047629;28;20663;-65
2022/07/12 02:38:09;;;;;;;1.07;0.97;;;21.50;99.90;;;;;;1047377;28;20092;-64
2022/07/12 02:38:40;;;;;;;1.20;0.90;;;21.50;99.90;;;;;;1047221;28;20251;-64
2022/07/12 02:39:11;;;;;;;0.70;0.70;;;21.50;99.90;;;;;;1047503;28;20016;-64
2022/07/12 02:39:41;;;;;;;1.25;1.00;;;21.50;99.90;;;;;;1046942;28;20162;-64
2022/07/12 02:41:01;;;;;;;0.70;0.70;;;21.50;99.90;;;;;;1047155;28;20126;-64
2022/07/12 02:41:33;;;;;;;0.70;0.70;;;21.40;99.90;;;;;;1047682;28;20117;-64
2022/07/12 02:42:04;;;;;;;0.90;0.85;;;21.50;99.90;;;;;;1047134;28;20433;-64
2022/07/12 02:42:34;;;;;;;1.07;0.97;;;21.40;99.90;;;;;;1047273;28;20598;-63
2022/07/12 02:43:05;;;;;;;1.33;1.00;;;21.40;99.90;;;;;;1047211;28;20107;-63